createdAt,value
2022-10-31T00:01:41.080Z,15.03
2022-10-31T00:04:09.269Z,15.70
2022-10-31T00:06:39.541Z,14.40
2022-10-31T00:09:07.772Z,14.93
2022-10-31T00:11:37.329Z,15.57
2022-10-31T00:14:05.901Z,16.63
2022-10-31T00:16:34.190Z,15.30
2022-10-31T00:19:04.731Z,14.80
2022-10-31T00:21:34.932Z,16.60
2022-10-31T00:24:03.685Z,18.70
2022-10-31T00:26:34.370Z,15.97
2022-10-31T00:29:06.164Z,14.83
2022-10-31T00:31:34.319Z,13.80
2022-10-31T00:34:03.906Z,17.23
2022-10-31T00:36:32.052Z,17.27
2022-10-31T00:39:01.256Z,16.83
2022-10-31T00:41:29.962Z,16.93
2022-10-31T00:43:58.259Z,17.63
2022-10-31T00:46:30.178Z,16.90
2022-10-31T00:48:58.311Z,16.43
2022-10-31T00:51:26.987Z,18.27
2022-10-31T00:53:55.136Z,15.03
2022-10-31T00:56:23.394Z,14.17
2022-10-31T00:58:53.815Z,19.00
2022-10-31T01:01:24.176Z,15.73
2022-10-31T01:03:53.803Z,15.47
2022-10-31T01:06:21.893Z,14.70
2022-10-31T01:08:50.370Z,15.77
2022-10-31T01:11:21.379Z,15.33
2022-10-31T01:13:52.995Z,14.60
2022-10-31T01:16:23.750Z,13.90
2022-10-31T01:18:53.684Z,13.27
2022-10-31T01:21:23.647Z,12.70
2022-10-31T01:23:51.889Z,14.27
2022-10-31T01:26:23.948Z,13.63
2022-10-31T01:28:54.144Z,13.80
2022-10-31T01:31:24.702Z,17.17
2022-10-31T01:33:54.191Z,14.50
2022-10-31T01:36:25.157Z,13.67
2022-10-31T01:38:54.811Z,15.03
2022-10-31T01:41:29.022Z,13.53
2022-10-31T01:44:01.417Z,14.00
2022-10-31T01:46:33.075Z,11.90
2022-10-31T01:49:06.106Z,12.97
2022-10-31T01:51:38.720Z,13.30
2022-10-31T01:54:10.057Z,13.17
2022-10-31T01:56:43.395Z,14.77
2022-10-31T01:59:17.530Z,16.17
2022-10-31T02:01:45.793Z,12.97
2022-10-31T02:04:16.008Z,11.80
2022-10-31T02:06:49.536Z,13.43
2022-10-31T02:09:18.611Z,14.90
2022-10-31T02:11:48.947Z,16.00
2022-10-31T02:14:17.351Z,13.13
2022-10-31T02:16:47.051Z,13.43
2022-10-31T02:19:21.141Z,13.63
2022-10-31T02:21:59.810Z,13.47
2022-10-31T02:24:46.617Z,12.53
2022-10-31T02:27:42.995Z,12.83
2022-10-31T02:30:20.506Z,13.60
2022-10-31T02:33:08.313Z,13.93
2022-10-31T02:35:52.153Z,12.63
2022-10-31T02:38:28.354Z,13.70
2022-10-31T02:41:07.836Z,14.63
2022-10-31T02:43:51.138Z,14.63
2022-10-31T02:46:29.986Z,12.80
2022-10-31T02:49:06.002Z,12.57
2022-10-31T02:51:34.398Z,12.57
2022-10-31T02:54:02.524Z,11.73
2022-10-31T02:56:33.492Z,13.17
2022-10-31T02:59:05.845Z,14.20
2022-10-31T03:01:58.573Z,12.87
2022-10-31T03:04:50.177Z,13.63
2022-10-31T03:07:24.879Z,12.17
2022-10-31T03:10:04.830Z,12.43
2022-10-31T03:12:44.591Z,12.73
2022-10-31T03:15:21.710Z,12.20
2022-10-31T03:17:57.926Z,12.33
2022-10-31T03:20:32.215Z,11.50
2022-10-31T03:23:02.379Z,12.23
2022-10-31T03:25:33.650Z,12.03
2022-10-31T03:28:04.667Z,11.30
2022-10-31T03:30:39.391Z,11.50
2022-10-31T03:33:12.599Z,10.90
2022-10-31T03:35:47.102Z,10.73
2022-10-31T03:38:18.097Z,11.03
2022-10-31T03:40:50.204Z,11.30
2022-10-31T03:45:51.130Z,13.30
2022-10-31T03:48:21.752Z,11.37
2022-10-31T03:51:00.053Z,10.97
2022-10-31T03:53:36.005Z,10.47
2022-10-31T03:56:12.515Z,10.53
2022-10-31T03:58:48.749Z,12.93
2022-10-31T04:01:20.885Z,11.83
2022-10-31T04:03:50.231Z,11.17
2022-10-31T04:06:23.976Z,12.53
2022-10-31T04:08:55.924Z,11.40
2022-10-31T04:11:29.398Z,13.53
2022-10-31T04:14:33.590Z,10.23
2022-10-31T04:17:03.463Z,9.87
2022-10-31T04:19:37.265Z,10.27
2022-10-31T04:22:06.762Z,11.87
2022-10-31T04:24:34.882Z,9.97
2022-10-31T04:27:03.057Z,11.43
2022-10-31T04:29:33.353Z,10.97
2022-10-31T04:32:01.478Z,11.80
2022-10-31T04:34:29.610Z,10.87
2022-10-31T04:36:57.847Z,12.17
2022-10-31T04:39:27.838Z,10.13
2022-10-31T04:42:18.888Z,10.93
2022-10-31T04:44:46.985Z,9.60
2022-10-31T04:47:17.399Z,10.03
2022-10-31T04:49:47.564Z,9.27
2022-10-31T04:52:18.515Z,10.60
2022-10-31T04:54:48.109Z,10.87
2022-10-31T04:57:43.026Z,9.47
2022-10-31T05:00:16.767Z,11.90
2022-10-31T05:02:46.299Z,10.20
2022-10-31T05:05:18.585Z,9.47
2022-10-31T05:07:50.592Z,9.47
2022-10-31T05:10:23.949Z,9.63
2022-10-31T05:12:54.392Z,8.90
2022-10-31T05:15:40.880Z,10.55
2022-10-31T05:18:47.438Z,9.60
2022-10-31T05:21:34.139Z,10.83
2022-10-31T05:24:05.052Z,9.23
2022-10-31T05:26:36.763Z,9.40
2022-10-31T05:29:07.252Z,10.23
2022-10-31T05:31:35.692Z,9.13
2022-10-31T05:34:08.307Z,9.10
2022-10-31T05:36:54.841Z,9.53
2022-10-31T05:39:24.851Z,9.50
2022-10-31T05:41:59.231Z,8.27
2022-10-31T05:44:28.868Z,7.27
2022-10-31T05:47:19.935Z,6.90
2022-10-31T05:49:57.281Z,7.13
2022-10-31T05:52:44.265Z,6.63
2022-10-31T05:55:26.698Z,6.17
2022-10-31T05:58:07.586Z,6.53
2022-10-31T06:00:37.671Z,6.63
2022-10-31T06:03:11.822Z,5.23
2022-10-31T06:05:56.287Z,6.33
2022-10-31T06:08:32.769Z,7.10
2022-10-31T06:11:06.027Z,7.07
2022-10-31T06:13:53.884Z,7.30
2022-10-31T06:16:26.611Z,7.27
2022-10-31T06:18:58.119Z,7.10
2022-10-31T06:21:26.535Z,9.93
2022-10-31T06:23:58.257Z,8.70
2022-10-31T06:26:43.500Z,7.33
2022-10-31T06:29:13.047Z,7.07
2022-10-31T06:32:01.418Z,7.10
2022-10-31T06:34:30.942Z,6.90
2022-10-31T06:36:59.428Z,7.00
2022-10-31T06:39:29.542Z,6.90
2022-10-31T06:41:57.748Z,6.60
2022-10-31T06:44:29.571Z,6.83
2022-10-31T06:47:01.072Z,6.10
2022-10-31T06:49:46.769Z,6.10
2022-10-31T06:52:17.773Z,6.27
2022-10-31T06:54:48.019Z,6.97
2022-10-31T06:57:16.576Z,6.73
2022-10-31T06:59:46.030Z,7.00
2022-10-31T07:02:40.430Z,6.80
2022-10-31T07:05:09.099Z,7.07
2022-10-31T07:07:37.296Z,7.20
2022-10-31T07:10:06.095Z,7.47
2022-10-31T07:12:49.426Z,7.77
2022-10-31T07:15:21.607Z,7.87
2022-10-31T07:17:49.871Z,7.93
2022-10-31T07:20:18.570Z,7.67
2022-10-31T07:22:50.748Z,8.50
2022-10-31T07:25:20.025Z,8.40
2022-10-31T07:28:11.422Z,7.77
2022-10-31T07:30:41.814Z,6.83
2022-10-31T07:33:11.147Z,8.40
2022-10-31T07:35:57.772Z,8.70
2022-10-31T07:38:31.332Z,7.80
2022-10-31T07:41:01.507Z,7.97
2022-10-31T07:43:32.231Z,8.70
2022-10-31T07:46:23.662Z,8.10
2022-10-31T07:49:10.406Z,8.77
2022-10-31T07:52:10.698Z,8.40
2022-10-31T07:54:57.373Z,8.00
2022-10-31T07:57:26.362Z,8.73
2022-10-31T07:59:56.684Z,8.03
2022-10-31T08:02:27.296Z,9.13
2022-10-31T08:05:31.320Z,9.00
2022-10-31T08:08:18.208Z,9.77
2022-10-31T08:10:47.731Z,9.87
2022-10-31T08:13:16.667Z,9.13
2022-10-31T08:15:51.467Z,9.03
2022-10-31T08:18:23.918Z,8.90
2022-10-31T08:20:56.091Z,9.47
2022-10-31T08:23:24.663Z,12.20
2022-10-31T08:25:54.769Z,10.10
2022-10-31T08:28:24.602Z,10.37
2022-10-31T08:30:54.576Z,11.83
2022-10-31T08:33:42.217Z,11.77
2022-10-31T08:36:10.511Z,11.27
2022-10-31T08:39:10.723Z,12.27
2022-10-31T08:41:40.595Z,11.30
2022-10-31T08:44:13.077Z,11.17
2022-10-31T08:46:41.691Z,12.07
2022-10-31T08:49:11.276Z,13.17
2022-10-31T08:51:44.233Z,12.17
2022-10-31T08:54:12.614Z,13.03
2022-10-31T08:56:58.993Z,13.07
2022-10-31T08:59:40.909Z,13.30
2022-10-31T09:02:25.685Z,14.30
2022-10-31T09:05:00.336Z,13.67
2022-10-31T09:07:29.468Z,19.17
2022-10-31T09:09:57.828Z,14.97
2022-10-31T09:12:32.632Z,21.67
2022-10-31T09:15:30.743Z,18.70
2022-10-31T09:18:17.839Z,18.87
2022-10-31T09:20:53.557Z,20.17
2022-10-31T09:23:23.128Z,22.30
2022-10-31T09:25:52.772Z,22.40
2022-10-31T09:28:47.344Z,21.63
2022-10-31T09:31:17.303Z,22.47
2022-10-31T09:33:51.152Z,27.27
2022-10-31T09:36:39.051Z,37.40
2022-10-31T09:39:14.433Z,40.67
2022-10-31T09:42:30.824Z,32.23
2022-10-31T09:45:08.788Z,41.90
2022-10-31T09:47:49.509Z,32.30
2022-10-31T09:50:40.860Z,31.93
2022-10-31T09:53:40.656Z,34.13
2022-10-31T09:56:16.330Z,39.50
2022-10-31T09:58:49.947Z,35.73
2022-10-31T10:01:30.715Z,34.97
2022-10-31T10:04:03.619Z,38.60
2022-10-31T10:06:53.327Z,35.43
2022-10-31T10:09:58.944Z,33.80
2022-10-31T10:13:15.368Z,31.73
2022-10-31T10:16:00.362Z,32.37
2022-10-31T10:18:39.857Z,37.40
2022-10-31T10:21:23.644Z,32.87
2022-10-31T10:24:04.818Z,32.70
2022-10-31T10:26:39.061Z,33.30
2022-10-31T10:29:23.383Z,32.23
2022-10-31T10:31:53.706Z,30.47
2022-10-31T10:34:26.162Z,31.17
2022-10-31T10:36:59.005Z,39.03
2022-10-31T10:39:32.870Z,30.47
2022-10-31T10:42:20.675Z,37.03
2022-10-31T10:45:09.608Z,36.60
2022-10-31T10:47:43.940Z,39.43
2022-10-31T10:50:17.901Z,32.40
2022-10-31T10:53:00.182Z,35.67
2022-10-31T10:55:34.859Z,33.40
2022-10-31T10:58:05.799Z,36.43
2022-10-31T11:00:40.061Z,37.07
2022-10-31T11:03:08.638Z,36.20
2022-10-31T11:05:39.712Z,35.67
2022-10-31T11:08:08.826Z,31.70
2022-10-31T11:10:39.818Z,34.83
2022-10-31T11:13:24.406Z,34.00
2022-10-31T11:16:02.203Z,32.20
2022-10-31T11:18:32.710Z,34.63
2022-10-31T11:21:05.329Z,38.37
2022-10-31T11:23:35.673Z,31.57
2022-10-31T11:26:05.847Z,33.30
2022-10-31T11:28:42.736Z,33.77
2022-10-31T11:31:15.092Z,33.57
2022-10-31T11:33:50.146Z,31.73
2022-10-31T11:36:23.334Z,32.20
2022-10-31T11:38:55.060Z,31.93
2022-10-31T11:41:29.725Z,29.57
2022-10-31T11:44:02.839Z,33.83
2022-10-31T11:46:36.451Z,35.33
2022-10-31T11:49:05.831Z,33.03
2022-10-31T11:51:37.334Z,34.80
2022-10-31T11:54:06.844Z,30.17
2022-10-31T11:56:41.711Z,33.53
2022-10-31T11:59:23.798Z,35.20
2022-10-31T12:01:54.061Z,27.50
2022-10-31T12:04:37.428Z,29.97
2022-10-31T12:07:05.650Z,33.50
2022-10-31T12:09:36.529Z,26.70
2022-10-31T12:12:36.097Z,29.43
2022-10-31T12:15:31.590Z,23.73
2022-10-31T12:18:24.625Z,29.33
2022-10-31T12:21:07.185Z,25.03
2022-10-31T12:23:46.798Z,29.00
2022-10-31T12:26:20.657Z,29.50
2022-10-31T12:29:05.567Z,26.73
2022-10-31T12:31:49.052Z,25.70
2022-10-31T12:35:02.472Z,23.93
2022-10-31T12:37:43.867Z,23.03
2022-10-31T12:40:31.989Z,23.03
2022-10-31T12:43:13.347Z,21.23
2022-10-31T12:45:54.161Z,23.33
2022-10-31T12:48:44.295Z,24.97
2022-10-31T12:51:22.802Z,25.13
2022-10-31T12:54:07.195Z,21.03
2022-10-31T12:56:47.340Z,26.67
2022-10-31T12:59:30.477Z,27.10
2022-10-31T13:02:06.427Z,24.17
2022-10-31T13:04:44.445Z,20.93
2022-10-31T13:07:19.493Z,21.40
2022-10-31T13:09:55.404Z,21.53
2022-10-31T13:12:24.896Z,28.40
2022-10-31T13:14:56.775Z,22.23
2022-10-31T13:17:30.935Z,22.27
2022-10-31T13:20:14.413Z,22.63
2022-10-31T13:22:47.646Z,21.23
2022-10-31T13:25:21.459Z,21.20
2022-10-31T13:27:57.013Z,21.10
2022-10-31T13:30:27.899Z,18.63
2022-10-31T13:33:02.135Z,23.07
2022-10-31T13:35:43.930Z,24.47
2022-10-31T13:38:20.840Z,20.73
2022-10-31T13:40:56.096Z,21.50
2022-10-31T13:43:37.491Z,21.57
2022-10-31T13:46:24.339Z,21.50
2022-10-31T13:48:52.488Z,21.17
2022-10-31T13:51:32.261Z,23.23
2022-10-31T13:54:02.564Z,21.17
2022-10-31T13:56:35.378Z,23.57
2022-10-31T13:59:22.963Z,18.63
2022-10-31T14:01:55.346Z,22.97
2022-10-31T14:04:26.269Z,22.77
2022-10-31T14:07:07.345Z,24.40
2022-10-31T14:09:37.644Z,20.63
2022-10-31T14:12:09.247Z,21.83
2022-10-31T14:14:45.959Z,22.47
2022-10-31T14:17:22.320Z,21.53
2022-10-31T14:20:05.674Z,24.90
2022-10-31T14:22:44.699Z,20.77
2022-10-31T14:25:34.404Z,23.90
2022-10-31T14:28:20.286Z,22.83
2022-10-31T14:30:54.857Z,23.20
2022-10-31T14:33:26.232Z,20.63
2022-10-31T14:35:59.755Z,25.90
2022-10-31T14:38:52.045Z,20.87
2022-10-31T14:41:47.796Z,21.17
2022-10-31T14:44:56.429Z,23.83
2022-10-31T14:47:37.437Z,27.65
2022-10-31T14:50:26.452Z,23.17
2022-10-31T14:52:58.792Z,25.50
2022-10-31T14:55:29.308Z,22.67
2022-10-31T14:58:03.755Z,27.03
2022-10-31T15:00:37.214Z,26.27
2022-10-31T15:03:15.900Z,25.57
2022-10-31T15:05:50.255Z,23.00
2022-10-31T15:08:34.621Z,22.73
2022-10-31T15:11:13.299Z,23.53
2022-10-31T15:13:46.611Z,28.40
2022-10-31T15:16:17.610Z,25.27
2022-10-31T15:18:53.601Z,24.97
2022-10-31T15:21:25.731Z,23.27
2022-10-31T15:23:56.237Z,22.67
2022-10-31T15:26:29.736Z,30.47
2022-10-31T15:29:03.244Z,22.67
2022-10-31T15:31:33.105Z,28.37
2022-10-31T15:34:08.188Z,28.10
2022-10-31T15:36:38.614Z,21.13
2022-10-31T15:39:07.451Z,26.40
2022-10-31T15:41:53.932Z,27.00
2022-10-31T15:44:25.793Z,23.20
2022-10-31T15:46:59.987Z,25.37
2022-10-31T15:49:36.442Z,23.00
2022-10-31T15:52:19.355Z,22.17
2022-10-31T15:54:53.280Z,21.20
2022-10-31T15:57:23.179Z,24.47
2022-10-31T15:59:52.131Z,22.73
2022-10-31T16:02:23.390Z,21.10
2022-10-31T16:04:56.728Z,27.43
2022-10-31T16:07:25.368Z,19.83
2022-10-31T16:09:58.720Z,23.83
2022-10-31T16:12:33.363Z,21.20
2022-10-31T16:15:01.715Z,23.43
2022-10-31T16:17:30.714Z,24.50
2022-10-31T16:20:03.678Z,19.33
2022-10-31T16:22:33.946Z,23.77
2022-10-31T16:25:07.070Z,19.23
2022-10-31T16:27:38.856Z,21.00
2022-10-31T16:30:32.686Z,21.30
2022-10-31T16:33:02.325Z,22.50
2022-10-31T16:35:35.418Z,21.87
2022-10-31T16:38:04.359Z,18.03
2022-10-31T16:40:36.310Z,16.90
2022-10-31T16:43:05.999Z,22.00
2022-10-31T16:45:35.182Z,18.67
2022-10-31T16:48:08.348Z,22.77
2022-10-31T16:50:36.532Z,20.50
2022-10-31T16:53:20.276Z,18.33
2022-10-31T16:55:50.413Z,25.47
2022-10-31T16:58:23.667Z,22.80
2022-10-31T17:00:52.230Z,19.10
2022-10-31T17:03:20.876Z,19.07
2022-10-31T17:05:49.014Z,21.27
2022-10-31T17:08:17.679Z,17.53
2022-10-31T17:10:47.686Z,16.50
2022-10-31T17:13:19.719Z,16.40
2022-10-31T17:15:51.662Z,20.45
2022-10-31T17:18:26.897Z,17.43
2022-10-31T17:21:00.025Z,20.30
2022-10-31T17:23:29.193Z,18.77
2022-10-31T17:25:57.370Z,22.17
2022-10-31T17:28:26.566Z,20.53
2022-10-31T17:30:59.062Z,24.37
2022-10-31T17:33:27.339Z,27.30
2022-10-31T17:35:55.598Z,20.00
2022-10-31T17:38:24.117Z,19.63
2022-10-31T17:40:52.316Z,22.77
2022-10-31T17:43:20.436Z,23.73
2022-10-31T17:45:49.106Z,19.03
2022-10-31T17:48:18.634Z,18.90
2022-10-31T17:50:46.823Z,17.77
2022-10-31T17:53:14.939Z,18.43
2022-10-31T17:55:43.072Z,20.37
2022-10-31T17:58:12.316Z,17.93
2022-10-31T18:00:44.727Z,19.40
2022-10-31T18:03:15.476Z,20.13
2022-10-31T18:05:53.040Z,16.23
2022-10-31T18:08:21.181Z,19.47
2022-10-31T18:10:49.329Z,21.17
2022-10-31T18:13:17.594Z,20.53
2022-10-31T18:15:45.727Z,18.17
2022-10-31T18:18:14.041Z,19.20
2022-10-31T18:20:42.237Z,17.57
2022-10-31T18:23:11.705Z,17.77
2022-10-31T18:25:40.929Z,18.70
2022-10-31T18:28:09.046Z,18.80
2022-10-31T18:30:43.164Z,20.50
2022-10-31T18:33:11.737Z,27.63
2022-10-31T18:35:42.651Z,17.57
2022-10-31T18:38:12.133Z,16.47
2022-10-31T18:40:42.495Z,21.27
2022-10-31T18:43:10.605Z,24.07
2022-10-31T18:45:46.944Z,35.20
2022-10-31T18:48:18.489Z,24.87
2022-10-31T18:50:46.895Z,45.83
2022-10-31T18:53:16.448Z,37.70
2022-10-31T18:55:47.659Z,28.40
2022-10-31T18:58:18.677Z,26.43
2022-10-31T19:00:47.286Z,19.03
2022-10-31T19:03:16.245Z,20.83
2022-10-31T19:05:44.315Z,20.90
2022-10-31T19:08:12.631Z,17.17
2022-10-31T19:10:42.930Z,20.00
2022-10-31T19:13:10.986Z,21.20
2022-10-31T19:15:41.541Z,19.73
2022-10-31T19:18:12.302Z,19.60
2022-10-31T19:20:41.057Z,17.93
2022-10-31T19:23:09.210Z,20.90
2022-10-31T19:25:39.413Z,21.03
2022-10-31T19:28:09.344Z,22.67
2022-10-31T19:30:37.493Z,20.97
2022-10-31T19:33:08.018Z,22.53
2022-10-31T19:35:38.483Z,19.73
2022-10-31T19:38:06.712Z,19.50
2022-10-31T19:40:38.221Z,18.13
2022-10-31T19:43:06.397Z,17.10
2022-10-31T19:45:35.992Z,20.67
2022-10-31T19:48:04.624Z,18.60
2022-10-31T19:50:35.185Z,18.60
2022-10-31T19:53:03.467Z,17.10
2022-10-31T19:55:31.641Z,17.13
2022-10-31T19:58:11.689Z,20.00
2022-10-31T20:00:43.647Z,18.13
2022-10-31T20:03:12.120Z,16.43
2022-10-31T20:05:42.893Z,19.03
2022-10-31T20:08:15.847Z,15.53
2022-10-31T20:10:55.739Z,17.97
2022-10-31T20:13:24.184Z,20.13
2022-10-31T20:15:53.815Z,14.20
2022-10-31T20:20:55.254Z,16.37
2022-10-31T20:23:23.853Z,17.43
2022-10-31T20:25:52.020Z,19.63
2022-10-31T20:28:20.184Z,16.50
2022-10-31T20:30:50.450Z,17.00
2022-10-31T20:33:22.889Z,18.93
2022-10-31T20:35:51.002Z,19.00
2022-10-31T20:38:19.142Z,18.13
2022-10-31T20:40:47.240Z,14.87
2022-10-31T20:43:18.447Z,19.50
2022-10-31T20:45:46.631Z,15.90
2022-10-31T20:48:14.750Z,18.03
2022-10-31T20:50:44.255Z,17.53
2022-10-31T20:53:12.407Z,18.70
2022-10-31T20:55:40.544Z,19.37
2022-10-31T20:58:08.622Z,16.70
2022-10-31T21:00:36.708Z,19.10
2022-10-31T21:03:05.047Z,19.43
2022-10-31T21:05:33.398Z,16.53
2022-10-31T21:08:02.854Z,12.43
2022-10-31T21:10:30.995Z,18.23
2022-10-31T21:12:59.582Z,17.03
2022-10-31T21:15:30.317Z,18.87
2022-10-31T21:18:00.126Z,18.40
2022-10-31T21:20:28.469Z,17.93
2022-10-31T21:22:59.030Z,18.33
2022-10-31T21:25:29.002Z,19.17
2022-10-31T21:27:57.142Z,13.93
2022-10-31T21:30:25.312Z,20.07
2022-10-31T21:32:55.785Z,19.60
2022-10-31T21:35:24.054Z,19.87
2022-10-31T21:37:54.370Z,17.40
2022-10-31T21:40:22.481Z,17.43
2022-10-31T21:42:52.134Z,18.70
2022-10-31T21:45:21.407Z,18.50
2022-10-31T21:47:49.965Z,20.27
2022-10-31T21:50:19.046Z,17.77
2022-10-31T21:52:47.777Z,21.30
2022-10-31T21:55:15.103Z,16.57
2022-10-31T21:57:43.256Z,15.00
2022-10-31T22:00:13.907Z,18.13
2022-10-31T22:02:42.080Z,20.10
2022-10-31T22:05:12.541Z,22.97
2022-10-31T22:07:40.676Z,17.53
2022-10-31T22:10:09.665Z,17.73
2022-10-31T22:12:38.988Z,18.17
2022-10-31T22:15:08.083Z,17.90
2022-10-31T22:17:39.800Z,15.70
2022-10-31T22:20:09.304Z,18.63
2022-10-31T22:22:39.777Z,19.10
2022-10-31T22:25:08.935Z,14.70
2022-10-31T22:27:39.390Z,13.77
2022-10-31T22:30:11.603Z,14.77
2022-10-31T22:32:41.250Z,14.40
2022-10-31T22:35:11.867Z,20.27
2022-10-31T22:37:39.981Z,13.97
2022-10-31T22:40:09.493Z,15.77
2022-10-31T22:42:40.003Z,16.03
2022-10-31T22:45:09.324Z,15.57
2022-10-31T22:47:37.641Z,14.50
2022-10-31T22:50:10.088Z,14.50
2022-10-31T22:52:38.291Z,17.00
2022-10-31T22:55:10.071Z,17.40
2022-10-31T22:57:40.727Z,13.37
2022-10-31T23:00:10.280Z,13.53
2022-10-31T23:02:40.704Z,13.27
2022-10-31T23:05:10.607Z,14.50
2022-10-31T23:07:41.334Z,18.07
2022-10-31T23:10:10.125Z,15.73
2022-10-31T23:12:55.935Z,14.57
2022-10-31T23:15:24.096Z,14.93
2022-10-31T23:17:52.233Z,13.67
2022-10-31T23:20:24.554Z,13.17
2022-10-31T23:22:52.663Z,14.87
2022-10-31T23:25:40.412Z,15.43
2022-10-31T23:28:10.839Z,14.50
2022-10-31T23:30:39.227Z,17.60
2022-10-31T23:33:07.558Z,15.20
2022-10-31T23:35:37.193Z,15.43
2022-10-31T23:38:07.432Z,12.97
2022-10-31T23:40:36.286Z,13.03
2022-10-31T23:43:04.384Z,14.37
2022-10-31T23:45:32.556Z,14.10
2022-10-31T23:48:00.989Z,10.80
2022-10-31T23:50:31.721Z,15.43
2022-10-31T23:53:03.601Z,15.27
2022-10-31T23:55:31.829Z,21.40
2022-10-31T23:58:00.332Z,11.50
